createdAt,value
2023-01-19T00:01:34.976Z,2.06
2023-01-19T00:04:04.937Z,2.16
2023-01-19T00:06:34.702Z,2.02
2023-01-19T00:09:04.561Z,2.34
2023-01-19T00:11:36.869Z,2.26
2023-01-19T00:14:07.128Z,2.43
2023-01-19T00:16:37.153Z,2.18
2023-01-19T00:19:07.194Z,2.29
2023-01-19T00:21:36.914Z,2.27
2023-01-19T00:24:07.355Z,2.28
2023-01-19T00:26:40.484Z,2.14
2023-01-19T00:29:10.479Z,2.04
2023-01-19T00:31:40.967Z,2.29
2023-01-19T00:34:11.281Z,2.40
2023-01-19T00:36:40.984Z,2.43
2023-01-19T00:39:11.065Z,2.40
2023-01-19T00:41:55.842Z,2.46
2023-01-19T00:44:25.519Z,2.41
2023-01-19T00:46:55.188Z,2.35
2023-01-19T00:49:24.883Z,2.33
2023-01-19T00:51:54.545Z,2.36
2023-01-19T00:54:24.446Z,2.32
2023-01-19T00:56:57.424Z,2.00
2023-01-19T00:59:28.541Z,2.37
2023-01-19T01:01:58.430Z,2.26
2023-01-19T01:04:28.274Z,2.27
2023-01-19T01:06:57.967Z,2.20
2023-01-19T01:09:27.759Z,2.26
2023-01-19T01:11:59.995Z,2.21
2023-01-19T01:14:29.645Z,2.22
2023-01-19T01:16:59.342Z,2.22
2023-01-19T01:19:29.127Z,2.24
2023-01-19T01:21:58.813Z,2.20
2023-01-19T01:24:28.468Z,2.27
2023-01-19T01:27:00.770Z,2.41
2023-01-19T01:29:30.447Z,2.29
2023-01-19T01:32:00.136Z,2.27
2023-01-19T01:34:29.929Z,2.37
2023-01-19T01:36:59.754Z,2.34
2023-01-19T01:39:29.580Z,2.05
2023-01-19T01:42:01.853Z,2.14
2023-01-19T01:44:50.007Z,2.18
2023-01-19T01:47:29.707Z,2.17
2023-01-19T01:50:06.431Z,2.11
2023-01-19T01:52:39.573Z,2.17
2023-01-19T01:55:11.115Z,2.18
2023-01-19T01:57:49.052Z,1.89
2023-01-19T02:00:19.909Z,2.02
2023-01-19T02:02:53.607Z,2.15
2023-01-19T02:05:27.154Z,2.25
2023-01-19T02:08:13.885Z,2.30
2023-01-19T02:10:57.368Z,2.26
2023-01-19T02:13:30.752Z,2.30
2023-01-19T02:16:03.614Z,2.27
2023-01-19T02:18:34.900Z,2.21
2023-01-19T02:21:12.844Z,2.25
2023-01-19T02:23:47.719Z,2.29
2023-01-19T02:26:21.663Z,2.37
2023-01-19T02:28:57.510Z,2.39
2023-01-19T02:31:27.741Z,2.42
2023-01-19T02:33:57.810Z,2.43
2023-01-19T02:36:30.112Z,2.31
2023-01-19T02:39:04.432Z,2.49
2023-01-19T02:41:41.033Z,2.55
2023-01-19T02:44:12.754Z,2.57
2023-01-19T02:46:42.377Z,2.54
2023-01-19T02:49:12.034Z,2.64
2023-01-19T02:51:42.148Z,2.73
2023-01-19T02:54:48.170Z,2.68
2023-01-19T02:57:43.713Z,2.72
2023-01-19T03:00:24.395Z,2.76
2023-01-19T03:03:06.063Z,2.75
2023-01-19T03:05:49.372Z,2.66
2023-01-19T03:08:25.475Z,2.83
2023-01-19T03:11:04.342Z,2.78
2023-01-19T03:13:44.601Z,2.79
2023-01-19T03:16:21.865Z,2.79
2023-01-19T03:18:56.618Z,2.72
2023-01-19T03:21:30.228Z,2.94
2023-01-19T03:24:04.197Z,2.94
2023-01-19T03:26:41.693Z,2.92
2023-01-19T03:29:13.138Z,2.88
2023-01-19T03:31:46.547Z,2.55
2023-01-19T03:34:22.055Z,2.87
2023-01-19T03:36:55.658Z,2.80
2023-01-19T03:39:27.509Z,2.88
2023-01-19T03:42:03.995Z,2.93
2023-01-19T03:44:37.232Z,2.96
2023-01-19T03:47:08.850Z,2.93
2023-01-19T03:49:40.029Z,2.79
2023-01-19T03:52:09.767Z,3.01
2023-01-19T03:54:39.747Z,3.09
2023-01-19T03:57:12.962Z,3.10
2023-01-19T03:59:42.756Z,3.06
2023-01-19T04:02:12.571Z,2.92
2023-01-19T04:04:42.312Z,3.01
2023-01-19T04:07:12.868Z,3.06
2023-01-19T04:09:43.513Z,3.02
2023-01-19T04:12:15.744Z,3.04
2023-01-19T04:14:45.396Z,2.79
2023-01-19T04:17:16.182Z,3.22
2023-01-19T04:19:45.979Z,3.06
2023-01-19T04:22:15.613Z,2.99
2023-01-19T04:24:45.233Z,2.94
2023-01-19T04:27:17.769Z,2.93
2023-01-19T04:29:47.454Z,2.93
2023-01-19T04:32:17.535Z,2.75
2023-01-19T04:34:47.237Z,2.77
2023-01-19T04:37:16.899Z,2.89
2023-01-19T04:39:46.581Z,3.03
2023-01-19T04:42:19.815Z,3.16
2023-01-19T04:44:49.484Z,3.06
2023-01-19T04:47:19.158Z,3.21
2023-01-19T04:49:48.891Z,3.01
2023-01-19T04:52:18.633Z,3.01
2023-01-19T04:54:48.517Z,3.07
2023-01-19T04:57:20.754Z,3.11
2023-01-19T04:59:50.376Z,3.02
2023-01-19T05:02:20.437Z,3.05
2023-01-19T05:04:50.108Z,3.09
2023-01-19T05:07:20.233Z,3.08
2023-01-19T05:09:49.959Z,3.01
2023-01-19T05:12:22.465Z,3.22
2023-01-19T05:14:52.109Z,3.19
2023-01-19T05:17:21.800Z,3.12
2023-01-19T05:19:51.543Z,3.22
2023-01-19T05:22:21.259Z,3.01
2023-01-19T05:24:50.873Z,3.18
2023-01-19T05:27:23.275Z,3.31
2023-01-19T05:29:52.950Z,3.25
2023-01-19T05:32:22.616Z,3.20
2023-01-19T05:34:52.322Z,3.27
2023-01-19T05:37:22.137Z,3.30
2023-01-19T05:39:51.822Z,3.28
2023-01-19T05:42:24.142Z,3.23
2023-01-19T05:44:53.800Z,3.16
2023-01-19T05:47:23.480Z,3.38
2023-01-19T05:49:53.097Z,3.37
2023-01-19T05:52:22.794Z,3.42
2023-01-19T05:54:52.491Z,3.39
2023-01-19T05:57:24.821Z,3.35
2023-01-19T05:59:54.558Z,3.22
2023-01-19T06:02:28.753Z,3.15
2023-01-19T06:04:59.245Z,3.41
2023-01-19T06:07:29.266Z,3.37
2023-01-19T06:09:59.106Z,3.36
2023-01-19T06:12:32.587Z,3.40
2023-01-19T06:15:02.298Z,3.23
2023-01-19T06:17:31.977Z,3.37
2023-01-19T06:20:01.654Z,3.26
2023-01-19T06:22:31.340Z,3.19
2023-01-19T06:25:01.040Z,3.26
2023-01-19T06:27:33.307Z,3.17
2023-01-19T06:30:03.005Z,3.21
2023-01-19T06:32:32.648Z,3.46
2023-01-19T06:35:02.356Z,3.39
2023-01-19T06:37:32.098Z,3.36
2023-01-19T06:40:01.785Z,3.27
2023-01-19T06:42:34.473Z,3.31
2023-01-19T06:45:04.162Z,3.19
2023-01-19T06:47:34.483Z,3.42
2023-01-19T06:50:04.574Z,3.19
2023-01-19T06:52:34.833Z,3.35
2023-01-19T06:55:04.489Z,3.35
2023-01-19T06:57:36.930Z,3.49
2023-01-19T07:00:08.968Z,3.32
2023-01-19T07:02:38.905Z,3.28
2023-01-19T07:05:09.684Z,3.35
2023-01-19T07:07:39.787Z,3.28
2023-01-19T07:10:11.827Z,3.49
2023-01-19T07:12:45.120Z,3.66
2023-01-19T07:15:14.992Z,3.34
2023-01-19T07:17:44.866Z,3.49
2023-01-19T07:20:17.521Z,3.39
2023-01-19T07:22:47.388Z,3.19
2023-01-19T07:25:18.010Z,3.35
2023-01-19T07:27:50.369Z,3.18
2023-01-19T07:30:20.334Z,3.37
2023-01-19T07:32:50.209Z,3.30
2023-01-19T07:35:22.183Z,3.32
2023-01-19T07:37:51.959Z,3.32
2023-01-19T07:40:23.928Z,3.35
2023-01-19T07:42:56.375Z,3.37
2023-01-19T07:45:28.046Z,3.33
2023-01-19T07:47:57.763Z,3.27
2023-01-19T07:50:29.330Z,3.16
2023-01-19T07:52:59.796Z,3.19
2023-01-19T07:55:29.622Z,3.21
2023-01-19T07:58:03.994Z,3.11
2023-01-19T08:00:33.722Z,3.09
2023-01-19T08:03:04.379Z,3.32
2023-01-19T08:05:35.631Z,4.14
2023-01-19T08:08:05.630Z,4.86
2023-01-19T08:10:35.561Z,5.09
2023-01-19T08:13:08.328Z,5.41
2023-01-19T08:15:38.134Z,5.52
2023-01-19T08:18:09.831Z,5.17
2023-01-19T08:20:39.903Z,5.21
2023-01-19T08:23:09.633Z,5.47
2023-01-19T08:25:42.264Z,5.31
2023-01-19T08:28:16.395Z,5.20
2023-01-19T08:30:47.453Z,5.35
2023-01-19T08:33:17.678Z,5.37
2023-01-19T08:35:51.056Z,5.55
2023-01-19T08:38:21.145Z,5.64
2023-01-19T08:40:51.667Z,5.80
2023-01-19T08:43:24.010Z,5.58
2023-01-19T08:45:56.500Z,5.32
2023-01-19T08:48:26.865Z,5.10
2023-01-19T08:50:56.622Z,5.40
2023-01-19T08:53:26.959Z,5.45
2023-01-19T08:56:00.073Z,5.56
2023-01-19T08:58:32.439Z,5.82
2023-01-19T09:01:04.053Z,6.14
2023-01-19T09:03:34.066Z,5.86
2023-01-19T09:06:03.833Z,5.88
2023-01-19T09:08:33.568Z,6.06
2023-01-19T09:11:03.344Z,6.30
2023-01-19T09:13:35.608Z,6.47
2023-01-19T09:16:07.810Z,6.34
2023-01-19T09:18:38.521Z,5.53
2023-01-19T09:21:08.564Z,4.52
2023-01-19T09:23:38.265Z,4.36
2023-01-19T09:26:09.003Z,4.74
2023-01-19T09:28:41.309Z,4.74
2023-01-19T09:31:11.604Z,4.55
2023-01-19T09:33:41.337Z,4.95
2023-01-19T09:36:11.212Z,4.75
2023-01-19T09:38:41.132Z,4.00
2023-01-19T09:41:19.746Z,4.43
2023-01-19T09:43:56.817Z,4.37
2023-01-19T09:46:32.801Z,4.13
2023-01-19T09:49:06.760Z,4.19
2023-01-19T09:51:39.174Z,4.18
2023-01-19T09:54:15.820Z,4.03
2023-01-19T09:56:46.451Z,4.08
2023-01-19T09:59:28.027Z,4.14
2023-01-19T10:02:09.629Z,4.08
2023-01-19T10:04:42.684Z,4.11
2023-01-19T10:07:18.773Z,4.07
2023-01-19T10:10:11.165Z,4.21
2023-01-19T10:12:51.143Z,4.15
2023-01-19T10:15:33.239Z,4.01
2023-01-19T10:18:20.249Z,4.04
2023-01-19T10:20:53.679Z,3.90
2023-01-19T10:23:39.799Z,3.98
2023-01-19T10:26:14.888Z,4.13
2023-01-19T10:28:46.063Z,4.29
2023-01-19T10:31:21.395Z,4.09
2023-01-19T10:33:52.361Z,4.08
2023-01-19T10:36:24.994Z,4.25
2023-01-19T10:38:54.912Z,4.22
2023-01-19T10:41:29.755Z,4.48
2023-01-19T10:44:04.393Z,4.57
2023-01-19T10:46:44.669Z,4.47
2023-01-19T10:49:28.139Z,4.13
2023-01-19T10:51:59.179Z,4.24
2023-01-19T10:54:30.519Z,4.38
2023-01-19T10:57:02.843Z,4.05
2023-01-19T10:59:35.085Z,4.34
2023-01-19T11:02:21.561Z,4.36
2023-01-19T11:04:53.328Z,4.30
2023-01-19T11:07:24.794Z,4.17
2023-01-19T11:10:15.559Z,4.03
2023-01-19T11:12:46.733Z,3.80
2023-01-19T11:15:19.113Z,3.82
2023-01-19T11:17:53.671Z,3.77
2023-01-19T11:20:26.913Z,3.79
2023-01-19T11:23:22.450Z,3.90
2023-01-19T11:25:54.361Z,4.03
2023-01-19T11:28:30.067Z,4.13
2023-01-19T11:31:01.977Z,4.05
2023-01-19T11:33:40.180Z,4.08
2023-01-19T11:36:17.803Z,4.39
2023-01-19T11:38:50.573Z,4.17
2023-01-19T11:41:22.760Z,4.29
2023-01-19T11:43:56.372Z,4.40
2023-01-19T11:46:29.723Z,4.23
2023-01-19T11:49:05.619Z,4.24
2023-01-19T11:51:41.786Z,4.15
2023-01-19T11:54:23.760Z,4.36
2023-01-19T11:56:57.136Z,4.00
2023-01-19T11:59:27.045Z,4.05
2023-01-19T12:02:00.263Z,4.19
2023-01-19T12:04:36.049Z,4.24
2023-01-19T12:07:10.694Z,4.39
2023-01-19T12:09:45.626Z,4.46
2023-01-19T12:12:18.560Z,4.33
2023-01-19T12:14:57.436Z,4.42
2023-01-19T12:17:30.272Z,4.53
2023-01-19T12:20:15.949Z,4.53
2023-01-19T12:22:50.858Z,4.43
2023-01-19T12:25:24.929Z,4.35
2023-01-19T12:27:56.157Z,4.44
2023-01-19T12:30:28.499Z,4.37
2023-01-19T12:33:29.076Z,4.64
2023-01-19T12:36:04.060Z,4.75
2023-01-19T12:38:47.212Z,4.79
2023-01-19T12:41:22.677Z,4.79
2023-01-19T12:44:07.842Z,4.73
2023-01-19T12:46:37.988Z,5.08
2023-01-19T12:49:13.561Z,5.21
2023-01-19T12:51:46.616Z,5.13
2023-01-19T12:54:27.982Z,5.07
2023-01-19T12:57:03.494Z,5.04
2023-01-19T12:59:40.100Z,5.02
2023-01-19T13:02:43.917Z,4.92
2023-01-19T13:05:47.572Z,5.01
2023-01-19T13:08:24.886Z,5.09
2023-01-19T13:11:26.260Z,5.10
2023-01-19T13:14:32.221Z,5.10
2023-01-19T13:17:20.094Z,5.16
2023-01-19T13:20:02.544Z,5.52
2023-01-19T13:23:05.248Z,5.60
2023-01-19T13:25:38.353Z,5.35
2023-01-19T13:28:12.728Z,5.54
2023-01-19T13:30:55.003Z,5.81
2023-01-19T13:33:27.078Z,5.82
2023-01-19T13:35:59.471Z,5.78
2023-01-19T13:38:32.928Z,5.87
2023-01-19T13:41:06.497Z,5.99
2023-01-19T13:43:40.957Z,5.92
2023-01-19T13:46:14.239Z,6.08
2023-01-19T13:48:56.710Z,6.44
2023-01-19T13:51:26.414Z,6.11
2023-01-19T13:53:57.301Z,6.13
2023-01-19T13:56:31.689Z,6.08
2023-01-19T13:59:10.283Z,6.06
2023-01-19T14:01:45.305Z,6.11
2023-01-19T14:04:32.452Z,5.86
2023-01-19T14:07:05.273Z,5.63
2023-01-19T14:09:35.128Z,5.66
2023-01-19T14:12:15.224Z,5.37
2023-01-19T14:14:46.808Z,5.25
2023-01-19T14:17:28.657Z,5.21
2023-01-19T14:20:00.981Z,5.19
2023-01-19T14:22:45.079Z,5.19
2023-01-19T14:25:29.371Z,5.07
2023-01-19T14:28:39.405Z,4.92
2023-01-19T14:31:23.689Z,4.88
2023-01-19T14:33:55.345Z,4.94
2023-01-19T14:36:33.289Z,4.91
2023-01-19T14:39:03.996Z,4.82
2023-01-19T14:41:41.723Z,4.96
2023-01-19T14:44:20.411Z,5.01
2023-01-19T14:46:51.544Z,5.14
2023-01-19T14:49:24.947Z,5.22
2023-01-19T14:51:56.084Z,4.95
2023-01-19T14:54:34.126Z,4.93
2023-01-19T14:57:03.833Z,5.00
2023-01-19T14:59:36.060Z,5.05
2023-01-19T15:02:05.802Z,4.95
2023-01-19T15:04:35.608Z,4.92
2023-01-19T15:07:05.483Z,4.84
2023-01-19T15:09:35.317Z,4.81
2023-01-19T15:12:05.189Z,4.83
2023-01-19T15:14:37.420Z,4.67
2023-01-19T15:17:07.262Z,4.54
2023-01-19T15:19:36.957Z,4.41
2023-01-19T15:22:14.853Z,4.27
2023-01-19T15:24:44.524Z,4.31
2023-01-19T15:27:14.860Z,4.23
2023-01-19T15:29:47.081Z,4.07
2023-01-19T15:32:17.731Z,3.82
2023-01-19T15:34:47.374Z,3.87
2023-01-19T15:37:17.036Z,3.82
2023-01-19T15:39:46.688Z,3.82
2023-01-19T15:42:17.366Z,3.75
2023-01-19T15:44:49.626Z,3.79
2023-01-19T15:47:19.522Z,3.71
2023-01-19T15:49:49.143Z,3.53
2023-01-19T15:52:18.980Z,3.32
2023-01-19T15:54:48.603Z,3.67
2023-01-19T15:57:18.294Z,3.65
2023-01-19T15:59:51.494Z,3.53
2023-01-19T16:02:21.392Z,3.49
2023-01-19T16:04:51.381Z,3.38
2023-01-19T16:07:21.284Z,3.32
2023-01-19T16:09:50.951Z,3.33
2023-01-19T16:12:20.609Z,3.22
2023-01-19T16:14:52.819Z,3.21
2023-01-19T16:17:22.947Z,3.20
2023-01-19T16:19:52.591Z,3.13
2023-01-19T16:22:22.225Z,3.08
2023-01-19T16:24:53.101Z,3.18
2023-01-19T16:27:22.780Z,3.15
2023-01-19T16:29:55.083Z,3.33
2023-01-19T16:32:24.790Z,3.44
2023-01-19T16:34:54.420Z,3.33
2023-01-19T16:37:24.060Z,3.25
2023-01-19T16:39:54.200Z,3.30
2023-01-19T16:42:23.945Z,3.26
2023-01-19T16:44:56.537Z,3.35
2023-01-19T16:47:26.173Z,3.43
2023-01-19T16:49:56.157Z,3.19
2023-01-19T16:52:25.994Z,3.12
2023-01-19T16:54:55.638Z,3.10
2023-01-19T16:57:25.449Z,3.08
2023-01-19T16:59:57.670Z,3.19
2023-01-19T17:02:27.369Z,3.21
2023-01-19T17:04:57.152Z,3.29
2023-01-19T17:07:26.994Z,3.25
2023-01-19T17:09:57.548Z,3.33
2023-01-19T17:12:27.532Z,3.62
2023-01-19T17:14:59.766Z,3.74
2023-01-19T17:17:44.484Z,3.74
2023-01-19T17:20:15.067Z,3.81
2023-01-19T17:22:44.729Z,3.81
2023-01-19T17:25:14.345Z,3.84
2023-01-19T17:27:43.985Z,3.89
2023-01-19T17:30:17.184Z,3.87
2023-01-19T17:32:46.850Z,3.78
2023-01-19T17:35:16.507Z,3.86
2023-01-19T17:37:46.478Z,3.86
2023-01-19T17:40:16.223Z,3.28
2023-01-19T17:42:46.137Z,3.80
2023-01-19T17:45:18.658Z,3.75
2023-01-19T17:47:50.926Z,3.63
2023-01-19T17:50:21.124Z,3.69
2023-01-19T17:52:51.062Z,3.49
2023-01-19T17:55:20.796Z,3.34
2023-01-19T17:57:50.748Z,3.50
2023-01-19T18:00:24.120Z,3.56
2023-01-19T18:02:54.389Z,3.63
2023-01-19T18:05:25.548Z,3.61
2023-01-19T18:07:55.484Z,3.55
2023-01-19T18:10:25.581Z,3.46
2023-01-19T18:12:55.245Z,3.56
2023-01-19T18:15:27.812Z,3.57
2023-01-19T18:17:57.794Z,3.48
2023-01-19T18:20:27.452Z,3.62
2023-01-19T18:22:57.134Z,3.53
2023-01-19T18:25:27.047Z,3.48
2023-01-19T18:27:56.690Z,3.42
2023-01-19T18:30:31.172Z,3.45
2023-01-19T18:33:01.140Z,3.38
2023-01-19T18:35:31.133Z,3.47
2023-01-19T18:38:01.229Z,3.39
2023-01-19T18:40:30.989Z,3.43
2023-01-19T18:43:00.678Z,3.37
2023-01-19T18:45:32.942Z,3.31
2023-01-19T18:48:03.470Z,3.44
2023-01-19T18:50:34.022Z,3.19
2023-01-19T18:53:03.997Z,3.20
2023-01-19T18:55:33.678Z,3.38
2023-01-19T18:58:04.250Z,3.40
2023-01-19T19:00:36.440Z,3.41
2023-01-19T19:03:10.303Z,3.54
2023-01-19T19:05:40.386Z,3.54
2023-01-19T19:08:10.347Z,3.42
2023-01-19T19:10:40.300Z,3.52
2023-01-19T19:13:10.710Z,3.45
2023-01-19T19:15:44.415Z,3.44
2023-01-19T19:18:16.330Z,3.39
2023-01-19T19:20:46.566Z,3.43
2023-01-19T19:23:16.229Z,3.32
2023-01-19T19:25:46.178Z,3.22
2023-01-19T19:28:15.852Z,3.53
2023-01-19T19:30:51.426Z,3.55
2023-01-19T19:33:22.623Z,3.14
2023-01-19T19:35:59.133Z,3.63
2023-01-19T19:38:29.417Z,3.48
2023-01-19T19:41:00.490Z,3.59
2023-01-19T19:43:30.474Z,3.67
2023-01-19T19:46:04.926Z,3.74
2023-01-19T19:48:37.574Z,3.66
2023-01-19T19:51:17.953Z,3.85
2023-01-19T19:53:51.399Z,3.65
2023-01-19T19:56:23.572Z,3.63
2023-01-19T19:58:54.784Z,4.69
2023-01-19T20:01:32.557Z,4.08
2023-01-19T20:04:09.016Z,3.93
2023-01-19T20:06:41.586Z,3.81
2023-01-19T20:09:14.129Z,3.75
2023-01-19T20:11:44.966Z,3.67
2023-01-19T20:14:16.883Z,3.68
2023-01-19T20:16:49.699Z,3.56
2023-01-19T20:19:19.853Z,3.50
2023-01-19T20:21:49.853Z,3.50
2023-01-19T20:24:21.895Z,3.42
2023-01-19T20:26:56.331Z,3.33
2023-01-19T20:29:26.557Z,3.27
2023-01-19T20:31:59.572Z,3.21
2023-01-19T20:34:33.371Z,3.22
2023-01-19T20:37:04.822Z,2.95
2023-01-19T20:39:36.792Z,2.95
2023-01-19T20:42:11.295Z,2.99
2023-01-19T20:44:41.299Z,3.10
2023-01-19T20:47:13.868Z,3.25
2023-01-19T20:49:43.888Z,3.34
2023-01-19T20:52:13.661Z,3.47
2023-01-19T20:54:43.397Z,3.30
2023-01-19T20:57:13.411Z,3.16
2023-01-19T20:59:43.405Z,3.11
2023-01-19T21:02:17.468Z,3.18
2023-01-19T21:04:47.440Z,3.04
2023-01-19T21:07:17.092Z,2.90
2023-01-19T21:09:46.986Z,2.97
2023-01-19T21:12:16.648Z,2.63
2023-01-19T21:14:46.543Z,2.61
2023-01-19T21:17:18.873Z,2.79
2023-01-19T21:19:48.900Z,2.88
2023-01-19T21:22:18.706Z,2.85
2023-01-19T21:24:49.550Z,2.80
2023-01-19T21:27:19.208Z,2.77
2023-01-19T21:29:50.337Z,2.84
2023-01-19T21:32:22.716Z,2.73
2023-01-19T21:34:52.672Z,2.74
2023-01-19T21:37:22.653Z,2.66
2023-01-19T21:39:52.549Z,2.68
2023-01-19T21:42:22.379Z,2.73
2023-01-19T21:44:52.357Z,2.76
2023-01-19T21:47:25.759Z,2.57
2023-01-19T21:49:55.590Z,2.47
2023-01-19T21:52:25.247Z,2.60
2023-01-19T21:54:54.858Z,2.64
2023-01-19T21:57:24.576Z,2.42
2023-01-19T21:59:54.195Z,2.30
2023-01-19T22:02:37.984Z,2.52
2023-01-19T22:05:09.411Z,2.53
2023-01-19T22:07:39.167Z,2.50
2023-01-19T22:10:11.038Z,2.49
2023-01-19T22:12:41.156Z,2.53
2023-01-19T22:15:12.545Z,2.49
2023-01-19T22:17:44.988Z,2.53
2023-01-19T22:20:15.023Z,2.57
2023-01-19T22:22:44.652Z,2.59
2023-01-19T22:25:15.210Z,2.60
2023-01-19T22:27:45.165Z,2.04
2023-01-19T22:30:14.977Z,2.63
2023-01-19T22:32:47.461Z,2.57
2023-01-19T22:35:17.168Z,2.43
2023-01-19T22:37:46.788Z,2.37
2023-01-19T22:40:16.784Z,2.37
2023-01-19T22:42:48.498Z,2.26
2023-01-19T22:45:18.176Z,2.13
2023-01-19T22:47:50.380Z,2.19
2023-01-19T22:50:20.109Z,2.19
2023-01-19T22:52:49.761Z,2.11
2023-01-19T22:55:19.390Z,2.19
2023-01-19T22:57:49.179Z,1.97
2023-01-19T23:00:20.118Z,2.01
2023-01-19T23:02:52.544Z,2.27
2023-01-19T23:05:22.181Z,2.32
2023-01-19T23:07:51.826Z,2.30
2023-01-19T23:10:21.433Z,2.35
2023-01-19T23:12:51.321Z,2.07
2023-01-19T23:15:20.938Z,2.08
2023-01-19T23:17:53.678Z,2.17
2023-01-19T23:20:23.308Z,2.24
2023-01-19T23:22:52.960Z,2.16
2023-01-19T23:25:22.588Z,2.17
2023-01-19T23:27:52.194Z,2.28
2023-01-19T23:30:22.335Z,2.24
2023-01-19T23:32:54.551Z,2.16
2023-01-19T23:35:24.204Z,2.12
2023-01-19T23:37:53.908Z,2.03
2023-01-19T23:40:24.552Z,1.98
2023-01-19T23:42:54.190Z,1.89
2023-01-19T23:45:24.354Z,1.96
2023-01-19T23:47:56.545Z,1.91
2023-01-19T23:50:26.163Z,2.02
2023-01-19T23:52:55.790Z,2.01
2023-01-19T23:55:25.391Z,1.84
2023-01-19T23:57:55.033Z,2.04
